createdAt,value
2022-09-04T00:02:38.698Z,99237.69
2022-09-04T00:06:57.679Z,99242.16
2022-09-04T00:11:12.453Z,99239.66
2022-09-04T00:15:20.227Z,99242.41
2022-09-04T00:19:36.915Z,99244.31
2022-09-04T00:23:48.379Z,99247.03
2022-09-04T00:27:58.669Z,99247.13
2022-09-04T00:32:00.044Z,99251.50
2022-09-04T00:36:03.389Z,99249.88
2022-09-04T00:40:14.575Z,99254.34
2022-09-04T00:44:24.405Z,99269.34
2022-09-04T00:48:53.617Z,99267.66
2022-09-04T00:53:06.042Z,99272.97
2022-09-04T00:57:58.777Z,99273.13
2022-09-04T01:02:23.108Z,99280.25
2022-09-04T01:06:53.035Z,99281.22
2022-09-04T01:11:19.330Z,99293.44
2022-09-04T01:15:42.195Z,99295.25
2022-09-04T01:20:03.953Z,99294.53
2022-09-04T01:24:39.845Z,99299.81
2022-09-04T01:29:15.434Z,99299.81
2022-09-04T01:33:35.090Z,99313.81
2022-09-04T01:37:55.509Z,99308.72
2022-09-04T01:42:08.810Z,99307.88
2022-09-04T01:46:41.825Z,99313.09
2022-09-04T01:50:48.807Z,99305.38
2022-09-04T01:55:11.942Z,99304.56
2022-09-04T01:59:30.244Z,99312.41
2022-09-04T02:04:04.979Z,99311.66
2022-09-04T02:08:21.986Z,99309.16
2022-09-04T02:12:44.118Z,99313.59
2022-09-04T02:16:56.278Z,99318.00
2022-09-04T02:21:14.005Z,99313.72
2022-09-04T02:25:53.049Z,99316.34
2022-09-04T02:30:04.077Z,99318.16
2022-09-04T02:34:11.251Z,99315.59
2022-09-04T02:38:24.447Z,99323.38
2022-09-04T02:42:51.238Z,99326.94
2022-09-04T02:47:27.013Z,99319.22
2022-09-04T02:52:15.086Z,99328.03
2022-09-04T02:56:47.981Z,99322.91
2022-09-04T03:00:55.735Z,99326.66
2022-09-04T03:05:09.843Z,99329.34
2022-09-04T03:09:22.288Z,99324.94
2022-09-04T03:13:39.189Z,99327.50
2022-09-04T03:17:53.424Z,99331.78
2022-09-04T03:22:08.462Z,99336.94
2022-09-04T03:26:27.712Z,99345.72
2022-09-04T03:30:34.802Z,99347.44
2022-09-04T03:34:46.374Z,99345.53
2022-09-04T03:39:16.021Z,99339.25
2022-09-04T03:43:30.755Z,99353.91
2022-09-04T03:47:59.885Z,99355.44
2022-09-04T03:52:43.197Z,99364.09
2022-09-04T03:57:09.515Z,99369.25
2022-09-04T04:01:21.629Z,99370.13
2022-09-04T04:05:43.114Z,99379.81
2022-09-04T04:09:53.496Z,99368.41
2022-09-04T04:14:02.574Z,99376.13
2022-09-04T04:18:20.111Z,99380.31
2022-09-04T04:22:39.329Z,99379.38
2022-09-04T04:26:59.229Z,99388.97
2022-09-04T04:31:15.327Z,99390.94
2022-09-04T04:36:03.060Z,99395.38
2022-09-04T04:40:22.834Z,99399.53
2022-09-04T04:44:57.038Z,99401.94
2022-09-04T04:49:40.103Z,99390.44
2022-09-04T04:54:04.605Z,99393.69
2022-09-04T04:58:24.050Z,99398.78
2022-09-04T05:02:35.685Z,99405.72
2022-09-04T05:07:02.035Z,99410.00
2022-09-04T05:11:22.146Z,99415.16
2022-09-04T05:15:52.967Z,99417.63
2022-09-04T05:20:17.361Z,99428.13
2022-09-04T05:24:33.115Z,99429.97
2022-09-04T05:28:53.148Z,99436.13
2022-09-04T05:33:04.222Z,99439.47
2022-09-04T05:37:53.337Z,99455.19
2022-09-04T05:42:08.096Z,99458.47
2022-09-04T05:46:18.639Z,99464.22
2022-09-04T05:50:51.472Z,99473.59
2022-09-04T05:54:59.110Z,99482.34
2022-09-04T05:59:16.073Z,99481.44
2022-09-04T06:04:02.542Z,99498.78
2022-09-04T06:08:17.503Z,99496.97
2022-09-04T06:12:34.820Z,99501.88
2022-09-04T06:16:58.088Z,99507.72
2022-09-04T06:21:08.815Z,99512.66
2022-09-04T06:25:13.819Z,99518.59
2022-09-04T06:29:24.406Z,99522.00
2022-09-04T06:33:57.290Z,99525.47
2022-09-04T06:38:26.881Z,99527.03
2022-09-04T06:42:54.532Z,99538.41
2022-09-04T06:46:56.164Z,99541.78
2022-09-04T06:51:07.737Z,99537.28
2022-09-04T06:55:19.488Z,99538.78
2022-09-04T06:59:41.956Z,99535.94
2022-09-04T07:03:46.437Z,99544.47
2022-09-04T07:08:27.125Z,99550.44
2022-09-04T07:12:55.818Z,99550.94
2022-09-04T07:17:25.223Z,99554.97
2022-09-04T07:21:52.556Z,99559.78
2022-09-04T07:26:19.166Z,99560.19
2022-09-04T07:30:22.712Z,99561.81
2022-09-04T07:34:31.370Z,99567.13
2022-09-04T07:38:50.674Z,99577.13
2022-09-04T07:42:57.421Z,99581.47
2022-09-04T07:47:13.609Z,99582.50
2022-09-04T07:51:24.618Z,99588.94
2022-09-04T07:55:46.638Z,99592.53
2022-09-04T08:00:04.380Z,99593.47
2022-09-04T08:04:51.093Z,99601.25
2022-09-04T08:09:07.608Z,99598.25
2022-09-04T08:13:24.899Z,99596.91
2022-09-04T08:18:10.285Z,99602.63
2022-09-04T08:22:17.172Z,99607.31
2022-09-04T08:26:47.206Z,99601.88
2022-09-04T08:31:09.163Z,99604.94
2022-09-04T08:35:39.238Z,99609.13
2022-09-04T08:39:59.537Z,99613.41
2022-09-04T08:44:39.693Z,99605.25
2022-09-04T08:49:03.649Z,99618.84
2022-09-04T08:53:29.176Z,99619.59
2022-09-04T08:58:08.993Z,99624.63
2022-09-04T09:02:48.420Z,99626.72
2022-09-04T09:07:09.317Z,99624.47
2022-09-04T09:11:40.263Z,99619.53
2022-09-04T09:16:09.361Z,99621.56
2022-09-04T09:20:54.439Z,99619.31
2022-09-04T09:25:20.897Z,99628.63
2022-09-04T09:29:48.740Z,99624.56
2022-09-04T09:34:18.945Z,99622.88
2022-09-04T09:38:29.686Z,99626.69
2022-09-04T09:42:56.293Z,99619.84
2022-09-04T09:47:19.140Z,99611.81
2022-09-04T09:51:42.468Z,99609.72
2022-09-04T09:56:24.285Z,99600.28
2022-09-04T10:00:29.433Z,99597.94
2022-09-04T10:04:55.221Z,99605.66
2022-09-04T10:09:09.582Z,99596.00
2022-09-04T10:13:29.693Z,99587.38
2022-09-04T10:17:37.593Z,99584.66
2022-09-04T10:21:57.789Z,99586.31
2022-09-04T10:25:59.246Z,99581.63
2022-09-04T10:30:06.812Z,99572.84
2022-09-04T10:34:43.507Z,99573.47
2022-09-04T10:39:28.278Z,99576.50
2022-09-04T10:43:54.162Z,99577.91
2022-09-04T10:48:02.285Z,99568.78
2022-09-04T10:52:13.830Z,99572.03
2022-09-04T10:56:32.303Z,99562.91
2022-09-04T11:01:04.009Z,99566.06
2022-09-04T11:05:27.656Z,99559.03
2022-09-04T11:09:57.513Z,99560.72
2022-09-04T11:14:07.698Z,99558.72
2022-09-04T11:18:27.830Z,99552.03
2022-09-04T11:22:48.006Z,99541.38
2022-09-04T11:26:53.520Z,99544.84
2022-09-04T11:31:04.079Z,99546.88
2022-09-04T11:35:33.118Z,99545.41
2022-09-04T11:40:06.437Z,99541.84
2022-09-04T11:44:30.485Z,99545.88
2022-09-04T11:48:44.918Z,99546.69
2022-09-04T11:53:11.298Z,99546.44
2022-09-04T11:57:48.715Z,99559.56
2022-09-04T12:02:30.002Z,99551.06
2022-09-04T12:06:51.538Z,99552.53
2022-09-04T12:11:14.288Z,99554.91
2022-09-04T12:15:28.593Z,99564.94
2022-09-04T12:19:54.612Z,99560.38
2022-09-04T12:24:10.623Z,99572.47
2022-09-04T12:29:03.301Z,99569.41
2022-09-04T12:33:45.818Z,99566.00
2022-09-04T12:37:50.000Z,99568.94
2022-09-04T12:42:04.676Z,99570.97
2022-09-04T12:46:37.037Z,99562.22
2022-09-04T12:50:48.910Z,99567.25
2022-09-04T12:54:56.274Z,99565.00
2022-09-04T12:59:16.213Z,99563.63
2022-09-04T13:03:30.495Z,99566.38
2022-09-04T13:07:47.343Z,99564.09
2022-09-04T13:12:20.505Z,99564.66
2022-09-04T13:16:34.041Z,99569.75
2022-09-04T13:21:05.482Z,99572.06
2022-09-04T13:25:26.362Z,99573.53
2022-09-04T13:29:36.535Z,99564.88
2022-09-04T13:33:54.824Z,99565.97
2022-09-04T13:38:07.425Z,99561.06
2022-09-04T13:42:33.481Z,99553.59
2022-09-04T13:46:40.107Z,99546.78
2022-09-04T13:50:59.438Z,99553.84
2022-09-04T13:55:18.057Z,99543.44
2022-09-04T13:59:29.378Z,99543.44
2022-09-04T14:03:40.162Z,99545.06
2022-09-04T14:07:45.527Z,99554.84
2022-09-04T14:11:47.078Z,99550.22
2022-09-04T14:16:01.875Z,99545.91
2022-09-04T14:20:22.591Z,99541.19
2022-09-04T14:24:40.073Z,99545.06
2022-09-04T14:29:02.395Z,99542.06
2022-09-04T14:33:15.118Z,99545.31
2022-09-04T14:37:46.399Z,99536.97
2022-09-04T14:42:02.617Z,99534.50
2022-09-04T14:46:38.472Z,99541.22
2022-09-04T14:51:17.423Z,99540.44
2022-09-04T14:55:34.822Z,99534.03
2022-09-04T14:59:44.105Z,99530.03
2022-09-04T15:04:14.009Z,99532.94
2022-09-04T15:08:26.921Z,99524.19
2022-09-04T15:12:41.948Z,99525.91
2022-09-04T15:16:49.581Z,99523.22
2022-09-04T15:21:05.871Z,99524.09
2022-09-04T15:25:19.924Z,99508.50
2022-09-04T15:29:33.503Z,99515.44
2022-09-04T15:33:35.821Z,99513.69
2022-09-04T15:37:37.405Z,99514.50
2022-09-04T15:41:47.350Z,99507.72
2022-09-04T15:45:51.812Z,99504.78
2022-09-04T15:49:58.602Z,99513.91
2022-09-04T15:54:27.470Z,99506.47
2022-09-04T15:58:38.330Z,99505.75
2022-09-04T16:02:59.895Z,99495.03
2022-09-04T16:07:26.454Z,99490.16
2022-09-04T16:11:41.545Z,99493.41
2022-09-04T16:15:45.297Z,99487.41
2022-09-04T16:19:58.508Z,99480.97
2022-09-04T16:24:08.968Z,99484.69
2022-09-04T16:28:25.369Z,99486.16
2022-09-04T16:32:28.848Z,99485.03
2022-09-04T16:37:11.629Z,99483.88
2022-09-04T16:41:25.435Z,99472.72
2022-09-04T16:45:39.825Z,99467.34
2022-09-04T16:50:01.944Z,99466.44
2022-09-04T16:54:37.639Z,99464.47
2022-09-04T16:59:15.487Z,99461.38
2022-09-04T17:03:25.473Z,99465.16
2022-09-04T17:07:37.417Z,99464.50
2022-09-04T17:11:55.648Z,99464.75
2022-09-04T17:16:00.146Z,99460.72
2022-09-04T17:20:11.581Z,99462.88
2022-09-04T17:29:16.026Z,99458.00
2022-09-04T17:29:29.592Z,99459.19
2022-09-04T17:37:56.549Z,99474.94
2022-09-04T17:40:48.981Z,99468.91
2022-09-04T17:43:21.597Z,99473.84
2022-09-04T17:47:49.519Z,99477.63
2022-09-04T17:51:57.595Z,99482.09
2022-09-04T17:56:37.973Z,99483.34
2022-09-04T18:01:14.653Z,99485.16
2022-09-04T18:05:24.398Z,99484.69
2022-09-04T18:09:56.489Z,99491.09
2022-09-04T18:14:17.323Z,99491.09
2022-09-04T18:18:27.807Z,99496.34
2022-09-04T18:22:50.594Z,99502.38
2022-09-04T18:27:11.505Z,99507.75
2022-09-04T18:37:11.052Z,99518.25
2022-09-04T18:37:19.448Z,99525.19
2022-09-04T18:46:21.306Z,99525.28
2022-09-04T18:50:33.212Z,99532.00
2022-09-04T18:50:37.224Z,99534.44
2022-09-04T18:54:36.730Z,99546.50
2022-09-04T18:58:50.047Z,99557.50
2022-09-04T19:03:04.956Z,99552.31
2022-09-04T19:07:23.530Z,99560.78
2022-09-04T19:11:34.615Z,99555.94
2022-09-04T19:16:01.338Z,99571.34
2022-09-04T19:20:16.867Z,99568.34
2022-09-04T19:24:37.061Z,99578.28
2022-09-04T19:28:53.193Z,99575.16
2022-09-04T19:33:29.796Z,99581.66
2022-09-04T19:40:31.922Z,99586.38
2022-09-04T19:46:05.541Z,99587.63
2022-09-04T19:46:50.990Z,99585.38
2022-09-04T19:53:30.914Z,99590.22
2022-09-04T19:55:41.734Z,99592.41
2022-09-04T19:59:47.114Z,99589.41
2022-09-04T20:04:02.394Z,99597.50
2022-09-04T20:08:14.592Z,99603.16
2022-09-04T20:12:37.074Z,99594.56
2022-09-04T20:16:59.406Z,99599.19
2022-09-04T20:21:19.769Z,99603.88
2022-09-04T20:25:21.210Z,99595.41
2022-09-04T20:29:30.589Z,99600.91
2022-09-04T20:33:35.647Z,99597.59
2022-09-04T20:37:41.439Z,99601.34
2022-09-04T20:41:54.873Z,99600.78
2022-09-04T20:49:04.747Z,99603.84
2022-09-04T20:52:56.255Z,99597.97
2022-09-04T20:55:01.419Z,99608.50
2022-09-04T21:03:09.287Z,99610.44
2022-09-04T21:04:18.051Z,99610.59
2022-09-04T21:09:05.290Z,99617.59
2022-09-04T21:13:24.733Z,99608.91
2022-09-04T21:17:47.950Z,99618.63
2022-09-04T21:22:33.230Z,99622.38
2022-09-04T21:26:58.997Z,99630.34
2022-09-04T21:31:19.212Z,99632.22
2022-09-04T21:35:23.703Z,99628.84
2022-09-04T21:39:53.960Z,99633.41
2022-09-04T21:43:58.027Z,99638.88
2022-09-04T21:48:42.642Z,99630.31
2022-09-04T21:53:18.522Z,99630.41
2022-09-04T22:02:35.102Z,99633.16
2022-09-04T22:02:51.568Z,99626.25
2022-09-04T22:09:59.137Z,99629.88
2022-09-04T22:13:40.666Z,99635.22
2022-09-04T22:17:03.223Z,99648.44
2022-09-04T22:21:07.672Z,99648.50
2022-09-04T22:25:41.361Z,99653.78
2022-09-04T22:30:08.612Z,99654.75
2022-09-04T22:34:29.842Z,99659.31
2022-09-04T22:38:43.641Z,99659.47
2022-09-04T22:43:02.286Z,99661.34
2022-09-04T22:47:37.654Z,99677.19
2022-09-04T22:52:16.720Z,99665.97
2022-09-04T22:56:57.203Z,99670.28
2022-09-04T23:01:11.808Z,99664.31
2022-09-04T23:05:20.649Z,99665.28
2022-09-04T23:13:54.629Z,99661.84
2022-09-04T23:14:31.346Z,99654.22
2022-09-04T23:22:05.546Z,99657.03
2022-09-04T23:26:52.826Z,99659.69
2022-09-04T23:28:54.788Z,99659.91
2022-09-04T23:33:34.746Z,99653.81
2022-09-04T23:38:02.937Z,99641.69
2022-09-04T23:42:13.562Z,99646.97
2022-09-04T23:46:37.304Z,99637.44
2022-09-04T23:51:16.062Z,99645.34
2022-09-04T23:55:48.968Z,99638.59
